sensor_id;sensor_type;location;lat;lon;timestamp;pressure;altitude;pressure_sealevel;temperature;humidity
60433;BME280;46286;48.098;11.590;2023-03-31T00:02:10;95103.41;;;6.03;100.00
60433;BME280;46286;48.098;11.590;2023-03-31T00:04:41;95093.03;;;6.14;100.00
60433;BME280;46286;48.098;11.590;2023-03-31T00:07:17;95097.75;;;6.17;100.00
60433;BME280;46286;48.098;11.590;2023-03-31T00:09:46;95085.00;;;6.26;100.00
60433;BME280;46286;48.098;11.590;2023-03-31T00:12:12;95081.13;;;6.33;100.00
60433;BME280;46286;48.098;11.590;2023-03-31T00:14:38;95074.25;;;6.22;100.00
60433;BME280;46286;48.098;11.590;2023-03-31T00:17:03;95072.06;;;6.03;100.00
60433;BME280;46286;48.098;11.590;2023-03-31T00:19:29;95062.00;;;5.90;100.00
60433;BME280;46286;48.098;11.590;2023-03-31T00:21:57;95067.16;;;5.80;100.00
60433;BME280;46286;48.098;11.590;2023-03-31T00:24:26;95059.69;;;5.61;100.00
60433;BME280;46286;48.098;11.590;2023-03-31T00:26:52;95060.59;;;5.45;100.00
60433;BME280;46286;48.098;11.590;2023-03-31T00:29:17;95054.22;;;5.30;100.00
60433;BME280;46286;48.098;11.590;2023-03-31T00:31:42;95053.63;;;5.23;100.00
60433;BME280;46286;48.098;11.590;2023-03-31T00:34:08;95044.56;;;5.31;100.00
60433;BME280;46286;48.098;11.590;2023-03-31T00:36:33;95051.06;;;5.28;100.00
60433;BME280;46286;48.098;11.590;2023-03-31T00:39:02;95042.09;;;5.19;100.00
60433;BME280;46286;48.098;11.590;2023-03-31T00:41:31;95041.59;;;5.22;100.00
60433;BME280;46286;48.098;11.590;2023-03-31T00:44:07;95034.81;;;5.21;100.00
60433;BME280;46286;48.098;11.590;2023-03-31T00:46:33;95029.59;;;5.21;100.00
60433;BME280;46286;48.098;11.590;2023-03-31T00:49:02;95011.81;;;5.18;100.00
60433;BME280;46286;48.098;11.590;2023-03-31T00:51:28;95010.25;;;5.17;100.00
60433;BME280;46286;48.098;11.590;2023-03-31T00:53:56;95015.53;;;5.22;100.00
60433;BME280;46286;48.098;11.590;2023-03-31T00:56:28;95018.91;;;5.23;100.00
60433;BME280;46286;48.098;11.590;2023-03-31T00:58:56;95009.22;;;5.18;100.00
60433;BME280;46286;48.098;11.590;2023-03-31T01:01:25;95003.50;;;5.21;100.00
60433;BME280;46286;48.098;11.590;2023-03-31T01:03:51;94998.28;;;5.21;100.00
60433;BME280;46286;48.098;11.590;2023-03-31T01:06:17;94994.66;;;5.22;100.00
60433;BME280;46286;48.098;11.590;2023-03-31T01:08:44;94995.72;;;5.26;100.00
60433;BME280;46286;48.098;11.590;2023-03-31T01:11:12;94994.94;;;5.26;100.00
60433;BME280;46286;48.098;11.590;2023-03-31T01:13:40;94983.22;;;5.28;100.00
60433;BME280;46286;48.098;11.590;2023-03-31T01:16:06;94979.28;;;5.26;100.00
60433;BME280;46286;48.098;11.590;2023-03-31T01:18:32;94976.44;;;5.27;100.00
60433;BME280;46286;48.098;11.590;2023-03-31T01:26:59;94970.69;;;5.25;100.00
60433;BME280;46286;48.098;11.590;2023-03-31T01:44:45;94931.25;;;4.89;100.00
60433;BME280;46286;48.098;11.590;2023-03-31T01:47:25;94941.72;;;4.94;100.00
60433;BME280;46286;48.098;11.590;2023-03-31T01:55:10;94927.63;;;4.95;100.00
60433;BME280;46286;48.098;11.590;2023-03-31T01:57:40;94931.31;;;4.94;100.00
60433;BME280;46286;48.098;11.590;2023-03-31T02:00:13;94919.38;;;5.03;100.00
60433;BME280;46286;48.098;11.590;2023-03-31T02:02:53;94910.78;;;5.08;100.00
60433;BME280;46286;48.098;11.590;2023-03-31T02:05:23;94909.47;;;5.06;100.00
60433;BME280;46286;48.098;11.590;2023-03-31T02:07:57;94905.84;;;5.07;100.00
60433;BME280;46286;48.098;11.590;2023-03-31T02:10:24;94903.28;;;5.12;100.00
60433;BME280;46286;48.098;11.590;2023-03-31T02:12:51;94898.06;;;5.12;100.00
60433;BME280;46286;48.098;11.590;2023-03-31T02:15:19;94888.16;;;5.14;100.00
60433;BME280;46286;48.098;11.590;2023-03-31T02:17:47;94880.88;;;5.16;100.00
60433;BME280;46286;48.098;11.590;2023-03-31T02:20:15;94884.00;;;5.18;100.00
60433;BME280;46286;48.098;11.590;2023-03-31T02:22:44;94877.72;;;5.14;100.00
60433;BME280;46286;48.098;11.590;2023-03-31T02:25:12;94885.09;;;5.22;100.00
60433;BME280;46286;48.098;11.590;2023-03-31T02:27:40;94884.19;;;5.44;100.00
60433;BME280;46286;48.098;11.590;2023-03-31T02:30:07;94884.94;;;5.87;100.00
60433;BME280;46286;48.098;11.590;2023-03-31T02:32:40;94879.34;;;6.21;100.00
60433;BME280;46286;48.098;11.590;2023-03-31T02:35:07;94882.53;;;6.44;100.00
60433;BME280;46286;48.098;11.590;2023-03-31T02:37:34;94875.78;;;6.63;100.00
60433;BME280;46286;48.098;11.590;2023-03-31T02:40:02;94880.75;;;6.70;100.00
60433;BME280;46286;48.098;11.590;2023-03-31T02:42:29;94882.88;;;6.88;100.00
60433;BME280;46286;48.098;11.590;2023-03-31T02:45:00;94879.97;;;6.85;100.00
60433;BME280;46286;48.098;11.590;2023-03-31T02:47:26;94879.47;;;6.93;100.00
60433;BME280;46286;48.098;11.590;2023-03-31T02:49:52;94880.78;;;7.01;100.00
60433;BME280;46286;48.098;11.590;2023-03-31T02:57:36;94870.31;;;6.96;100.00
60433;BME280;46286;48.098;11.590;2023-03-31T03:00:28;94881.56;;;6.91;100.00
60433;BME280;46286;48.098;11.590;2023-03-31T03:16:10;94868.97;;;6.47;100.00
60433;BME280;46286;48.098;11.590;2023-03-31T03:18:38;94870.53;;;6.48;100.00
60433;BME280;46286;48.098;11.590;2023-03-31T03:21:03;94861.66;;;6.59;100.00
60433;BME280;46286;48.098;11.590;2023-03-31T03:23:29;94861.66;;;6.54;100.00
60433;BME280;46286;48.098;11.590;2023-03-31T03:25:55;94867.44;;;6.71;100.00
60433;BME280;46286;48.098;11.590;2023-03-31T03:28:21;94873.19;;;6.68;100.00
60433;BME280;46286;48.098;11.590;2023-03-31T03:30:47;94876.84;;;6.72;100.00
60433;BME280;46286;48.098;11.590;2023-03-31T03:33:12;94885.72;;;6.71;100.00
60433;BME280;46286;48.098;11.590;2023-03-31T03:35:41;94886.00;;;6.70;100.00
60433;BME280;46286;48.098;11.590;2023-03-31T03:38:07;94888.88;;;6.73;100.00
60433;BME280;46286;48.098;11.590;2023-03-31T03:40:32;94889.66;;;6.79;100.00
60433;BME280;46286;48.098;11.590;2023-03-31T03:42:58;94901.94;;;6.84;100.00
60433;BME280;46286;48.098;11.590;2023-03-31T03:45:23;94899.34;;;6.79;100.00
60433;BME280;46286;48.098;11.590;2023-03-31T03:47:48;94900.38;;;6.72;100.00
60433;BME280;46286;48.098;11.590;2023-03-31T03:50:14;94891.47;;;6.73;100.00
60433;BME280;46286;48.098;11.590;2023-03-31T03:52:39;94886.78;;;6.65;100.00
60433;BME280;46286;48.098;11.590;2023-03-31T03:55:05;94888.06;;;6.68;100.00
60433;BME280;46286;48.098;11.590;2023-03-31T03:57:31;94870.56;;;6.73;100.00
60433;BME280;46286;48.098;11.590;2023-03-31T03:59:56;94873.19;;;6.68;100.00
60433;BME280;46286;48.098;11.590;2023-03-31T04:02:21;94871.59;;;6.57;100.00
60433;BME280;46286;48.098;11.590;2023-03-31T04:04:47;94856.41;;;6.49;100.00
60433;BME280;46286;48.098;11.590;2023-03-31T04:07:12;94843.06;;;6.40;100.00
60433;BME280;46286;48.098;11.590;2023-03-31T04:09:38;94831.81;;;6.34;100.00
60433;BME280;46286;48.098;11.590;2023-03-31T04:12:03;94834.94;;;6.36;100.00
60433;BME280;46286;48.098;11.590;2023-03-31T04:14:29;94825.00;;;6.33;100.00
60433;BME280;46286;48.098;11.590;2023-03-31T04:16:54;94821.59;;;6.28;100.00
60433;BME280;46286;48.098;11.590;2023-03-31T04:19:23;94818.19;;;6.22;100.00
60433;BME280;46286;48.098;11.590;2023-03-31T04:21:50;94803.03;;;6.19;100.00
60433;BME280;46286;48.098;11.590;2023-03-31T04:24:23;94805.69;;;6.24;100.00
60433;BME280;46286;48.098;11.590;2023-03-31T04:26:55;94786.84;;;6.22;100.00
60433;BME280;46286;48.098;11.590;2023-03-31T04:29:20;94784.25;;;6.17;100.00
60433;BME280;46286;48.098;11.590;2023-03-31T04:31:47;94779.25;;;6.20;100.00
60433;BME280;46286;48.098;11.590;2023-03-31T04:34:14;94780.06;;;6.21;100.00
60433;BME280;46286;48.098;11.590;2023-03-31T04:36:41;94762.31;;;6.18;100.00
60433;BME280;46286;48.098;11.590;2023-03-31T04:39:11;94767.50;;;6.13;100.00
60433;BME280;46286;48.098;11.590;2023-03-31T04:41:36;94766.44;;;6.09;100.00
60433;BME280;46286;48.098;11.590;2023-03-31T04:44:02;94766.44;;;6.09;100.00
60433;BME280;46286;48.098;11.590;2023-03-31T04:46:27;94762.53;;;6.06;100.00
60433;BME280;46286;48.098;11.590;2023-03-31T04:48:53;94763.56;;;6.10;100.00
60433;BME280;46286;48.098;11.590;2023-03-31T04:51:18;94762.25;;;6.07;100.00
60433;BME280;46286;48.098;11.590;2023-03-31T04:53:44;94761.75;;;6.05;100.00
60433;BME280;46286;48.098;11.590;2023-03-31T04:56:10;94751.31;;;6.05;100.00
60433;BME280;46286;48.098;11.590;2023-03-31T04:58:36;94746.06;;;6.05;100.00
60433;BME280;46286;48.098;11.590;2023-03-31T05:01:02;94731.19;;;6.06;100.00
60433;BME280;46286;48.098;11.590;2023-03-31T05:03:27;94693.84;;;6.05;100.00
60433;BME280;46286;48.098;11.590;2023-03-31T05:05:53;94677.66;;;6.03;100.00
60433;BME280;46286;48.098;11.590;2023-03-31T05:08:18;94670.84;;;6.07;100.00
60433;BME280;46286;48.098;11.590;2023-03-31T05:10:44;94666.13;;;6.04;100.00
60433;BME280;46286;48.098;11.590;2023-03-31T05:13:09;94658.31;;;6.10;100.00
60433;BME280;46286;48.098;11.590;2023-03-31T05:15:38;94650.22;;;6.11;100.00
60433;BME280;46286;48.098;11.590;2023-03-31T05:18:05;94641.09;;;6.14;100.00
60433;BME280;46286;48.098;11.590;2023-03-31T05:20:30;94635.31;;;6.12;100.00
60433;BME280;46286;48.098;11.590;2023-03-31T05:22:56;94628.53;;;6.11;100.00
60433;BME280;46286;48.098;11.590;2023-03-31T05:25:21;94612.34;;;6.14;100.00
60433;BME280;46286;48.098;11.590;2023-03-31T05:27:47;94603.44;;;6.15;100.00
60433;BME280;46286;48.098;11.590;2023-03-31T05:30:13;94598.22;;;6.20;100.00
60433;BME280;46286;48.098;11.590;2023-03-31T05:32:39;94595.09;;;6.18;100.00
60433;BME280;46286;48.098;11.590;2023-03-31T05:35:04;94582.53;;;6.20;100.00
60433;BME280;46286;48.098;11.590;2023-03-31T05:37:30;94582.53;;;6.25;100.00
60433;BME280;46286;48.098;11.590;2023-03-31T05:39:56;94582.28;;;6.21;100.00
60433;BME280;46286;48.098;11.590;2023-03-31T05:42:21;94578.88;;;6.26;100.00
60433;BME280;46286;48.098;11.590;2023-03-31T05:44:47;94559.53;;;6.27;100.00
60433;BME280;46286;48.098;11.590;2023-03-31T05:47:12;94553.25;;;6.33;100.00
60433;BME280;46286;48.098;11.590;2023-03-31T05:49:38;94532.34;;;6.33;100.00
60433;BME280;46286;48.098;11.590;2023-03-31T05:52:04;94532.06;;;6.40;100.00
60433;BME280;46286;48.098;11.590;2023-03-31T05:54:30;94528.91;;;6.48;100.00
60433;BME280;46286;48.098;11.590;2023-03-31T05:56:55;94527.59;;;6.51;100.00
60433;BME280;46286;48.098;11.590;2023-03-31T05:59:21;94505.63;;;6.57;100.00
60433;BME280;46286;48.098;11.590;2023-03-31T06:01:46;94501.97;;;6.58;100.00
60433;BME280;46286;48.098;11.590;2023-03-31T06:04:12;94498.28;;;6.59;100.00
60433;BME280;46286;48.098;11.590;2023-03-31T06:06:37;94492.50;;;6.62;100.00
60433;BME280;46286;48.098;11.590;2023-03-31T06:09:03;94485.41;;;6.68;100.00
60433;BME280;46286;48.098;11.590;2023-03-31T06:11:29;94487.47;;;6.76;100.00
60433;BME280;46286;48.098;11.590;2023-03-31T06:13:54;94485.06;;;6.85;100.00
60433;BME280;46286;48.098;11.590;2023-03-31T06:16:20;94474.59;;;6.85;100.00
60433;BME280;46286;48.098;11.590;2023-03-31T06:18:45;94457.31;;;6.94;100.00
60433;BME280;46286;48.098;11.590;2023-03-31T06:21:12;94448.94;;;6.92;100.00
60433;BME280;46286;48.098;11.590;2023-03-31T06:23:37;94434.53;;;6.94;100.00
60433;BME280;46286;48.098;11.590;2023-03-31T06:26:06;94439.50;;;6.96;100.00
60433;BME280;46286;48.098;11.590;2023-03-31T06:28:33;94431.63;;;7.01;100.00
60433;BME280;46286;48.098;11.590;2023-03-31T06:31:09;94426.41;;;7.01;100.00
60433;BME280;46286;48.098;11.590;2023-03-31T06:33:37;94422.66;;;7.13;100.00
60433;BME280;46286;48.098;11.590;2023-03-31T06:36:03;94417.41;;;7.13;100.00
60433;BME280;46286;48.098;11.590;2023-03-31T06:38:30;94413.50;;;7.10;100.00
60433;BME280;46286;48.098;11.590;2023-03-31T06:40:55;94414.47;;;7.19;100.00
60433;BME280;46286;48.098;11.590;2023-03-31T06:43:21;94406.34;;;7.21;100.00
60433;BME280;46286;48.098;11.590;2023-03-31T06:45:46;94406.78;;;7.33;100.00
60433;BME280;46286;48.098;11.590;2023-03-31T06:48:12;94408.81;;;7.41;100.00
60433;BME280;46286;48.098;11.590;2023-03-31T06:50:38;94411.81;;;7.54;100.00
60433;BME280;46286;48.098;11.590;2023-03-31T06:53:04;94393.00;;;7.52;100.00
60433;BME280;46286;48.098;11.590;2023-03-31T06:55:29;94395.00;;;7.60;100.00
60433;BME280;46286;48.098;11.590;2023-03-31T06:57:55;94402.38;;;7.53;100.00
60433;BME280;46286;48.098;11.590;2023-03-31T07:00:20;94412.38;;;7.51;100.00
60433;BME280;46286;48.098;11.590;2023-03-31T07:02:46;94407.69;;;7.48;100.00
60433;BME280;46286;48.098;11.590;2023-03-31T07:05:11;94412.94;;;7.48;100.00
60433;BME280;46286;48.098;11.590;2023-03-31T07:07:37;94413.47;;;7.44;100.00
60433;BME280;46286;48.098;11.590;2023-03-31T07:10:02;94458.47;;;7.46;100.00
60433;BME280;46286;48.098;11.590;2023-03-31T07:12:28;94487.53;;;7.45;100.00
60433;BME280;46286;48.098;11.590;2023-03-31T07:14:56;94515.56;;;7.44;100.00
60433;BME280;46286;48.098;11.590;2023-03-31T07:17:21;94530.75;;;7.42;100.00
60433;BME280;46286;48.098;11.590;2023-03-31T07:19:49;94516.63;;;7.43;100.00
60433;BME280;46286;48.098;11.590;2023-03-31T07:22:18;94532.03;;;7.45;100.00
60433;BME280;46286;48.098;11.590;2023-03-31T07:24:43;94544.28;;;7.55;100.00
60433;BME280;46286;48.098;11.590;2023-03-31T07:27:10;94537.34;;;7.74;100.00
60433;BME280;46286;48.098;11.590;2023-03-31T07:29:35;94540.84;;;7.59;100.00
60433;BME280;46286;48.098;11.590;2023-03-31T07:32:00;94545.84;;;7.56;100.00
60433;BME280;46286;48.098;11.590;2023-03-31T07:34:26;94573.53;;;7.67;100.00
60433;BME280;46286;48.098;11.590;2023-03-31T07:36:53;94554.00;;;7.54;100.00
60433;BME280;46286;48.098;11.590;2023-03-31T07:39:19;94556.38;;;7.45;100.00
60433;BME280;46286;48.098;11.590;2023-03-31T07:41:45;94533.34;;;7.48;100.00
60433;BME280;46286;48.098;11.590;2023-03-31T07:44:10;94509.25;;;7.45;100.00
60433;BME280;46286;48.098;11.590;2023-03-31T07:46:36;94504.56;;;7.42;100.00
60433;BME280;46286;48.098;11.590;2023-03-31T07:49:01;94484.66;;;7.46;100.00
60433;BME280;46286;48.098;11.590;2023-03-31T07:51:27;94475.28;;;7.40;100.00
60433;BME280;46286;48.098;11.590;2023-03-31T07:53:53;94473.72;;;7.39;100.00
60433;BME280;46286;48.098;11.590;2023-03-31T07:56:19;94479.50;;;7.36;100.00
60433;BME280;46286;48.098;11.590;2023-03-31T07:58:45;94473.13;;;7.48;100.00
60433;BME280;46286;48.098;11.590;2023-03-31T08:01:14;94461.66;;;7.43;100.00
60433;BME280;46286;48.098;11.590;2023-03-31T08:03:41;94449.25;;;7.54;100.00
60433;BME280;46286;48.098;11.590;2023-03-31T08:06:07;94408.88;;;7.60;100.00
60433;BME280;46286;48.098;11.590;2023-03-31T08:08:32;94427.38;;;7.69;100.00
60433;BME280;46286;48.098;11.590;2023-03-31T08:10:58;94394.00;;;7.80;100.00
60433;BME280;46286;48.098;11.590;2023-03-31T08:13:23;94408.38;;;7.83;100.00
60433;BME280;46286;48.098;11.590;2023-03-31T08:15:48;94408.94;;;7.79;100.00
60433;BME280;46286;48.098;11.590;2023-03-31T08:18:14;94418.75;;;7.69;100.00
60433;BME280;46286;48.098;11.590;2023-03-31T08:20:40;94405.38;;;7.70;100.00
60433;BME280;46286;48.098;11.590;2023-03-31T08:23:06;94398.56;;;7.69;100.00
60433;BME280;46286;48.098;11.590;2023-03-31T08:25:33;94409.63;;;7.66;100.00
60433;BME280;46286;48.098;11.590;2023-03-31T08:27:58;94408.31;;;7.63;100.00
60433;BME280;46286;48.098;11.590;2023-03-31T08:30:24;94390.13;;;7.77;100.00
60433;BME280;46286;48.098;11.590;2023-03-31T08:32:50;94389.88;;;7.74;100.00
60433;BME280;46286;48.098;11.590;2023-03-31T08:35:15;94404.81;;;7.73;100.00
60433;BME280;46286;48.098;11.590;2023-03-31T08:37:41;94403.94;;;7.83;100.00
60433;BME280;46286;48.098;11.590;2023-03-31T08:40:06;94399.59;;;7.73;100.00
60433;BME280;46286;48.098;11.590;2023-03-31T08:42:38;94394.91;;;7.70;100.00
60433;BME280;46286;48.098;11.590;2023-03-31T08:45:26;94413.25;;;7.70;100.00
60433;BME280;46286;48.098;11.590;2023-03-31T08:47:55;94437.38;;;7.67;100.00
60433;BME280;46286;48.098;11.590;2023-03-31T08:50:31;94430.56;;;7.66;100.00
60433;BME280;46286;48.098;11.590;2023-03-31T08:53:05;94459.13;;;7.92;100.00
60433;BME280;46286;48.098;11.590;2023-03-31T08:55:38;94469.59;;;7.92;100.00
60433;BME280;46286;48.098;11.590;2023-03-31T08:58:11;94476.47;;;7.83;100.00
60433;BME280;46286;48.098;11.590;2023-03-31T09:00:41;94509.03;;;7.76;100.00
60433;BME280;46286;48.098;11.590;2023-03-31T09:03:16;94498.53;;;7.76;100.00
60433;BME280;46286;48.098;11.590;2023-03-31T09:05:55;94504.34;;;7.73;100.00
60433;BME280;46286;48.098;11.590;2023-03-31T09:08:33;94477.72;;;7.90;100.00
60433;BME280;46286;48.098;11.590;2023-03-31T09:11:05;94472.16;;;7.97;100.00
60433;BME280;46286;48.098;11.590;2023-03-31T09:16:05;94464.38;;;8.16;100.00
60433;BME280;46286;48.098;11.590;2023-03-31T09:18:34;94445.63;;;8.28;100.00
60433;BME280;46286;48.098;11.590;2023-03-31T09:21:11;94428.19;;;8.37;100.00
60433;BME280;46286;48.098;11.590;2023-03-31T09:24:02;94449.25;;;8.75;100.00
60433;BME280;46286;48.098;11.590;2023-03-31T09:27:03;94441.03;;;9.01;100.00
60433;BME280;46286;48.098;11.590;2023-03-31T09:31:54;94415.44;;;9.26;100.00
60433;BME280;46286;48.098;11.590;2023-03-31T09:34:26;94409.28;;;9.49;100.00
60433;BME280;46286;48.098;11.590;2023-03-31T09:36:52;94415.16;;;9.74;100.00
60433;BME280;46286;48.098;11.590;2023-03-31T09:39:18;94399.41;;;10.02;100.00
60433;BME280;46286;48.098;11.590;2023-03-31T09:41:44;94389.88;;;10.06;100.00
60433;BME280;46286;48.098;11.590;2023-03-31T09:44:13;94386.72;;;10.04;100.00
60433;BME280;46286;48.098;11.590;2023-03-31T09:46:45;94381.69;;;10.21;100.00
60433;BME280;46286;48.098;11.590;2023-03-31T09:49:13;94376.63;;;10.39;100.00
60433;BME280;46286;48.098;11.590;2023-03-31T09:51:41;94364.91;;;10.45;100.00
60433;BME280;46286;48.098;11.590;2023-03-31T09:59:00;94382.34;;;10.41;100.00
60433;BME280;46286;48.098;11.590;2023-03-31T10:01:26;94380.72;;;10.68;100.00
60433;BME280;46286;48.098;11.590;2023-03-31T10:03:53;94375.94;;;10.70;100.00
60433;BME280;46286;48.098;11.590;2023-03-31T10:06:19;94385.47;;;10.80;100.00
60433;BME280;46286;48.098;11.590;2023-03-31T10:08:56;94387.19;;;10.84;100.00
60433;BME280;46286;48.098;11.590;2023-03-31T10:11:22;94389.34;;;10.82;100.00
60433;BME280;46286;48.098;11.590;2023-03-31T10:13:48;94382.38;;;10.78;100.00
60433;BME280;46286;48.098;11.590;2023-03-31T10:16:28;94371.53;;;10.79;100.00
60433;BME280;46286;48.098;11.590;2023-03-31T10:18:55;94362.91;;;11.10;100.00
60433;BME280;46286;48.098;11.590;2023-03-31T10:21:35;94349.72;;;11.33;100.00
60433;BME280;46286;48.098;11.590;2023-03-31T10:24:01;94357.03;;;11.13;100.00
60433;BME280;46286;48.098;11.590;2023-03-31T10:26:32;94342.09;;;11.00;100.00
60433;BME280;46286;48.098;11.590;2023-03-31T10:28:57;94332.03;;;11.02;100.00
60433;BME280;46286;48.098;11.590;2023-03-31T10:31:32;94334.91;;;10.91;100.00
60433;BME280;46286;48.098;11.590;2023-03-31T10:33:58;94328.81;;;11.05;100.00
60433;BME280;46286;48.098;11.590;2023-03-31T10:36:29;94313.75;;;12.00;100.00
60433;BME280;46286;48.098;11.590;2023-03-31T10:38:56;94304.63;;;12.50;100.00
60433;BME280;46286;48.098;11.590;2023-03-31T10:41:26;94302.56;;;13.08;100.00
60433;BME280;46286;48.098;11.590;2023-03-31T10:43:53;94304.13;;;12.91;100.00
60433;BME280;46286;48.098;11.590;2023-03-31T10:46:19;94307.13;;;12.28;100.00
60433;BME280;46286;48.098;11.590;2023-03-31T10:48:44;94304.00;;;12.53;100.00
60433;BME280;46286;48.098;11.590;2023-03-31T10:53:43;94290.47;;;12.89;100.00
60433;BME280;46286;48.098;11.590;2023-03-31T10:56:24;94276.19;;;12.90;100.00
60433;BME280;46286;48.098;11.590;2023-03-31T11:06:54;94257.28;;;12.01;100.00
60433;BME280;46286;48.098;11.590;2023-03-31T11:14:46;94254.72;;;11.29;100.00
60433;BME280;46286;48.098;11.590;2023-03-31T11:17:21;94261.50;;;11.13;100.00
60433;BME280;46286;48.098;11.590;2023-03-31T11:22:53;94267.00;;;10.71;100.00
60433;BME280;46286;48.098;11.590;2023-03-31T11:25:30;94310.56;;;10.27;100.00
60433;BME280;46286;48.098;11.590;2023-03-31T11:35:43;94359.13;;;8.28;100.00
60433;BME280;46286;48.098;11.590;2023-03-31T11:39:07;94325.53;;;8.11;100.00
60433;BME280;46286;48.098;11.590;2023-03-31T11:43:42;94314.97;;;7.97;100.00
60433;BME280;46286;48.098;11.590;2023-03-31T11:46:17;94300.25;;;8.01;100.00
60433;BME280;46286;48.098;11.590;2023-03-31T11:48:56;94278.03;;;8.18;100.00
60433;BME280;46286;48.098;11.590;2023-03-31T11:51:25;94268.09;;;8.14;100.00
60433;BME280;46286;48.098;11.590;2023-03-31T11:53:52;94271.16;;;8.22;100.00
60433;BME280;46286;48.098;11.590;2023-03-31T11:56:18;94263.13;;;8.32;100.00
60433;BME280;46286;48.098;11.590;2023-03-31T11:58:46;94259.06;;;8.40;100.00
60433;BME280;46286;48.098;11.590;2023-03-31T12:03:43;94229.72;;;8.90;100.00
60433;BME280;46286;48.098;11.590;2023-03-31T12:06:13;94224.50;;;9.45;100.00
60433;BME280;46286;48.098;11.590;2023-03-31T12:08:53;94221.28;;;9.99;100.00
60433;BME280;46286;48.098;11.590;2023-03-31T12:11:30;94201.47;;;10.38;100.00
60433;BME280;46286;48.098;11.590;2023-03-31T12:14:14;94209.09;;;10.71;100.00
60433;BME280;46286;48.098;11.590;2023-03-31T12:16:45;94208.72;;;11.26;100.00
60433;BME280;46286;48.098;11.590;2023-03-31T12:19:26;94205.63;;;11.24;100.00
60433;BME280;46286;48.098;11.590;2023-03-31T12:21:54;94188.00;;;11.34;100.00
60433;BME280;46286;48.098;11.590;2023-03-31T12:24:21;94185.09;;;11.04;100.00
60433;BME280;46286;48.098;11.590;2023-03-31T12:26:58;94182.56;;;10.58;100.00
60433;BME280;46286;48.098;11.590;2023-03-31T12:29:29;94189.53;;;10.54;100.00
60433;BME280;46286;48.098;11.590;2023-03-31T12:32:00;94183.75;;;10.75;100.00
60433;BME280;46286;48.098;11.590;2023-03-31T12:34:27;94181.47;;;10.82;100.00
60433;BME280;46286;48.098;11.590;2023-03-31T12:37:17;94187.59;;;11.09;100.00
60433;BME280;46286;48.098;11.590;2023-03-31T12:40:00;94181.06;;;10.98;100.00
60433;BME280;46286;48.098;11.590;2023-03-31T12:47:57;94169.53;;;10.76;100.00
60433;BME280;46286;48.098;11.590;2023-03-31T12:55:47;94200.06;;;10.54;100.00
60433;BME280;46286;48.098;11.590;2023-03-31T13:01:00;94164.63;;;11.41;100.00
60433;BME280;46286;48.098;11.590;2023-03-31T13:06:08;94197.53;;;11.12;100.00
60433;BME280;46286;48.098;11.590;2023-03-31T13:14:10;94204.09;;;10.61;100.00
60433;BME280;46286;48.098;11.590;2023-03-31T13:16:37;94207.00;;;10.50;100.00
60433;BME280;46286;48.098;11.590;2023-03-31T13:19:02;94225.16;;;10.38;100.00
60433;BME280;46286;48.098;11.590;2023-03-31T13:21:28;94248.28;;;10.13;100.00
60433;BME280;46286;48.098;11.590;2023-03-31T13:23:58;94193.66;;;9.87;100.00
60433;BME280;46286;48.098;11.590;2023-03-31T13:29:20;94147.91;;;9.66;100.00
60433;BME280;46286;48.098;11.590;2023-03-31T13:34:34;94171.91;;;9.73;100.00
60433;BME280;46286;48.098;11.590;2023-03-31T13:39:50;94165.97;;;10.49;100.00
60433;BME280;46286;48.098;11.590;2023-03-31T13:45:24;94148.38;;;12.18;100.00
60433;BME280;46286;48.098;11.590;2023-03-31T13:50:14;94161.09;;;11.89;100.00
60433;BME280;46286;48.098;11.590;2023-03-31T14:11:21;94149.47;;;11.82;100.00
60433;BME280;46286;48.098;11.590;2023-03-31T14:16:43;94167.13;;;11.06;100.00
60433;BME280;46286;48.098;11.590;2023-03-31T14:19:31;94172.34;;;10.88;100.00
60433;BME280;46286;48.098;11.590;2023-03-31T14:22:01;94191.75;;;10.70;100.00
60433;BME280;46286;48.098;11.590;2023-03-31T14:24:39;94187.09;;;10.67;100.00
60433;BME280;46286;48.098;11.590;2023-03-31T14:27:29;94185.81;;;10.55;100.00
60433;BME280;46286;48.098;11.590;2023-03-31T14:37:48;94198.81;;;10.15;100.00
60433;BME280;46286;48.098;11.590;2023-03-31T14:40:14;94204.13;;;10.01;100.00
60433;BME280;46286;48.098;11.590;2023-03-31T14:42:40;94222.44;;;9.93;100.00
60433;BME280;46286;48.098;11.590;2023-03-31T14:45:15;94255.97;;;9.17;100.00
60433;BME280;46286;48.098;11.590;2023-03-31T14:47:41;94223.66;;;8.75;100.00
60433;BME280;46286;48.098;11.590;2023-03-31T14:52:33;94206.63;;;8.59;100.00
60433;BME280;46286;48.098;11.590;2023-03-31T14:55:00;94201.66;;;8.57;100.00
60433;BME280;46286;48.098;11.590;2023-03-31T14:57:29;94240.72;;;8.59;100.00
60433;BME280;46286;48.098;11.590;2023-03-31T14:59:57;94221.13;;;8.70;100.00
60433;BME280;46286;48.098;11.590;2023-03-31T15:02:33;94187.69;;;8.62;100.00
60433;BME280;46286;48.098;11.590;2023-03-31T15:05:03;94176.06;;;8.68;100.00
60433;BME280;46286;48.098;11.590;2023-03-31T15:07:31;94164.03;;;9.09;100.00
60433;BME280;46286;48.098;11.590;2023-03-31T15:09:57;94167.88;;;9.39;100.00
60433;BME280;46286;48.098;11.590;2023-03-31T15:12:22;94160.59;;;9.36;100.00
60433;BME280;46286;48.098;11.590;2023-03-31T15:14:49;94149.78;;;9.38;100.00
60433;BME280;46286;48.098;11.590;2023-03-31T15:17:22;94152.72;;;9.36;100.00
60433;BME280;46286;48.098;11.590;2023-03-31T15:19:55;94136.97;;;9.36;100.00
60433;BME280;46286;48.098;11.590;2023-03-31T15:22:26;94153.31;;;9.33;100.00
60433;BME280;46286;48.098;11.590;2023-03-31T15:24:52;94134.44;;;9.31;100.00
60433;BME280;46286;48.098;11.590;2023-03-31T15:27:32;94148.44;;;9.40;100.00
60433;BME280;46286;48.098;11.590;2023-03-31T15:29:59;94151.44;;;9.47;100.00